Nearby METAR Reports

 

EGDY - Yeovilton (navy), United Kingdom
Distance from station: NNW 26mi, 42km
Updated: 28/10/2021 05:50
Mostly cloudy
Mostly cloudy
 Wind from S
Wind: S 8 mph , 13 km/h
Temperature: 15°C
Dew Point: 12°C
Humidity: 82%
Barometer: 1010 hPa
Clouds: Mostly cloudy
Visibility: 6 miles , 10 km
Cloud details: Mostly cloudy 457 m
Mostly cloudy 732 m
2021/10/28 03:50 EGDY 280350Z AUTO 17007KT 9999 BKN015/// BKN024/// 15/12 Q1010
EGHH - Bournemouth Airp, United Kingdom
Distance from station: ENE 28mi, 45km
Updated: 28/10/2021 00:50
NOT Current
Mostly cloudy
Mostly cloudy
 Wind from SSW
Wind: SSW 9 mph , 15 km/h
Temperature: 15°C
Dew Point: 12°C
Humidity: 82%
Barometer: 1015 hPa
Clouds: Mostly cloudy
Visibility: 6 miles , 10 km
Cloud details: Few Clouds 305 m
Mostly cloudy 853 m
2021/10/27 22:50 EGHH 272250Z 20008KT 9999 FEW010 BKN028 15/12 Q1015
 
EGTE - Exeter Airport, United Kingdom
Distance from station: W 43mi, 70km
Updated: 28/10/2021 03:20
NOT Current
Mostly cloudy
Mostly cloudy
 Wind from S
Wind: S 12 mph , 19 km/h
Temperature: 15°C
Dew Point: 12°C
Humidity: 82%
Barometer: 1011 hPa
Clouds: Mostly cloudy
Visibility: 6 miles , 10 km
Cloud details: Mostly cloudy 457 m
2021/10/28 01:20 EGTE 280120Z 17010KT 9999 BKN015 15/12 Q1011
EGDM - Boscombe Down, United Kingdom
Distance from station: NE 47mi, 76km
Updated: 28/10/2021 05:50
Overcast
Overcast
 Wind from S
Wind: S 15 mph , 24 km/h
Temperature: 13°C
Dew Point: 10°C
Humidity: 82%
Barometer: 1011 hPa
Clouds: Overcast
Visibility: 6 miles , 10 km
Cloud details: Overcast 488 m
2021/10/28 03:50 EGDM 280350Z AUTO 18013KT 9999 OVC016/// 13/10 Q1011
 
EGVP - Middle Wallop, United Kingdom
Distance from station: NE 51mi, 82km
Updated: 28/10/2021 05:50
Mostly cloudy
Mostly cloudy
 Wind from S
Wind: S 12 mph , 19 km/h
Temperature: 14°C
Dew Point: 11°C
Humidity: 82%
Barometer: 1011 hPa
Clouds: Mostly cloudy
Visibility: 6 miles , 10 km
Cloud details: Few Clouds 488 m
Mostly cloudy 701 m
2021/10/28 03:50 EGVP 280350Z AUTO 18010KT 9999 FEW016/// BKN023/// 14/11 Q1011
EGGD - Bristol/Lulsgate, United Kingdom
Distance from station: NNW 52mi, 83km
Updated: 28/10/2021 06:20
Overcast
Overcast
 Wind from S
Wind: S 15 mph , 24 km/h
Temperature: 13°C
Dew Point: 11°C
Humidity: 88%
Barometer: 1009 hPa
Clouds: Overcast
Visibility: 6 miles , 10 km
Cloud details: Mostly cloudy 396 m
Overcast 884 m
2021/10/28 04:20 EGGD 280420Z AUTO 17013KT 9999 BKN013 OVC029 13/11 Q1009
 
EGHI - Southampton Wx C, United Kingdom
Distance from station: ENE 52mi, 84km
Updated: 27/10/2021 22:50
NOT Current
Mostly cloudy
Mostly cloudy
 Wind from S
Wind: S 14 mph , 22 km/h
Temperature: 15°C
Dew Point: 13°C
Humidity: 88%
Barometer: 1017 hPa
Clouds: Mostly cloudy
Visibility: 6 miles , 10 km
Cloud details: Few Clouds 457 m
Mostly cloudy 1067 m
2021/10/27 20:50 EGHI 272050Z 19012KT 160V230 9999 FEW015 BKN035 15/13 Q1017
EGJA - Alderney/Channel, United Kingdom
Distance from station: S 65mi, 104km
Updated: 27/10/2021 19:20
NOT Current
Few Clouds
Few Clouds
 Wind from S
Wind: S 17 mph , 28 km/h
Temperature: 15°C
Dew Point: 13°C
Humidity: 88%
Barometer: 1018 hPa
Clouds: Few Clouds
Visibility: 6 miles , 10 km
Cloud details: Few Clouds 975 m
2021/10/27 17:20 EGJA 271720Z 17015KT 9999 FEW032 15/13 Q1018
 
EGFF - Cardiff-Wales Ar, United Kingdom
Distance from station: NW 65mi, 105km
Updated: 28/10/2021 06:20
Overcast
Overcast
 Wind from S
Wind: S 17 mph , 28 km/h
Temperature: 14°C
Dew Point: 12°C
Humidity: 88%
Barometer: 1008 hPa
Clouds: Overcast
Visibility: 6 miles , 10 km
Cloud details: Overcast 488 m
2021/10/28 04:20 EGFF 280420Z AUTO 18015KT 9999 OVC016 14/12 Q1008
EGVA - Fairford Raf, United Kingdom
Distance from station: NNE 77mi, 123km
Updated: 28/10/2021 05:56
Overcast
Overcast
 Wind from SSW
Wind: SSW 21 mph , 33 km/h, Gust: 25 mph , 41 km/h
Temperature: 14°C
Dew Point: 11°C
Humidity: 82%
Barometer: 1009.1 hPa
Clouds: Overcast
Visibility: 6 miles , 10 km
Cloud details: Overcast 792 m
2021/10/28 03:56 EGVA 280356Z AUTO 20018G22KT 9999 OVC026 14/11 A2980 RMK AO2 SLP094 T01390112 $